Time;durP1;ratioP1;P1;durP2;ratioP2;P2;SDS_P1;SDS_P2;PMS_P1;PMS_P2;Temp;Humidity;BMP_temperature;BMP_pressure;BME280_temperature;BME280_humidity;BME280_pressure;Samples;Min_cycle;Max_cycle;Signal;HPM_P1;HPM_P2
2024/03/30 00:02:16;;;;;;;3.85;1.48;;;;;;;13.55;66.59;95333.03;5001389;28;20103;-86
2024/03/30 00:04:41;;;;;;;2.20;1.55;;;;;;;13.59;66.69;95339.22;5013881;28;20297;-85
2024/03/30 00:07:06;;;;;;;1.92;1.42;;;;;;;13.60;66.71;95329.50;5001453;28;20583;-86
2024/03/30 00:09:32;;;;;;;2.03;1.50;;;;;;;13.65;66.81;95327.50;5000899;28;20108;-85
2024/03/30 00:11:57;;;;;;;2.70;1.13;;;;;;;13.65;66.32;95327.50;5026718;28;20024;-84
2024/03/30 00:14:23;;;;;;;2.20;1.50;;;;;;;13.70;66.79;95328.44;5033894;28;20039;-87
2024/03/30 00:16:49;;;;;;;1.52;1.27;;;;;;;13.73;66.57;95317.38;5025970;28;20450;-87
2024/03/30 00:19:15;;;;;;;1.98;1.40;;;;;;;13.73;66.54;95319.97;5028584;28;21407;-85
2024/03/30 00:21:40;;;;;;;2.28;1.48;;;;;;;13.84;66.34;95326.41;5003086;28;20075;-85
2024/03/30 00:27:47;;;;;;;2.03;1.83;;;;;;;13.85;65.96;95317.50;5181628;22;20780;-80
2024/03/30 00:30:12;;;;;;;4.25;1.58;;;;;;;13.88;66.07;95313.47;4984780;28;20021;-80
2024/03/30 00:32:38;;;;;;;2.28;1.55;;;;;;;13.89;66.59;95318.41;4782013;28;20232;-84
2024/03/30 00:37:32;;;;;;;2.05;1.58;;;;;;;14.00;66.54;95310.97;5063121;28;20048;-85
2024/03/30 00:39:58;;;;;;;3.20;1.42;;;;;;;14.00;66.30;95301.31;5047351;28;20045;-87
2024/03/30 00:42:25;;;;;;;1.58;1.33;;;;;;;14.00;66.80;95300.50;5023660;28;20392;-87
2024/03/30 00:44:53;;;;;;;2.78;1.33;;;;;;;13.90;65.75;95301.63;5009625;28;20059;-86
2024/03/30 00:47:19;;;;;;;2.85;1.40;;;;;;;13.97;65.71;95301.91;5025673;28;20060;-84
2024/03/30 00:49:44;;;;;;;1.30;1.20;;;;;;;13.95;66.09;95298.06;5011739;28;20056;-87
2024/03/30 00:52:10;;;;;;;1.63;1.13;;;;;;;14.04;65.78;95306.69;5024584;28;20510;-87
2024/03/30 00:54:35;;;;;;;2.95;1.17;;;;;;;14.03;66.03;95313.78;5012279;28;20101;-87
2024/03/30 00:57:01;;;;;;;1.98;1.00;;;;;;;13.93;65.32;95303.63;5027831;28;20036;-88
2024/03/30 00:59:26;;;;;;;1.63;0.82;;;;;;;13.93;65.05;95306.25;5018729;28;20075;-89
2024/03/30 01:01:51;;;;;;;2.38;1.13;;;;;;;13.84;65.70;95308.09;5009987;28;20036;-80
2024/03/30 01:04:17;;;;;;;1.55;1.15;;;;;;;13.84;65.16;95308.84;5024217;28;20043;-80
2024/03/30 01:06:45;;;;;;;2.20;1.05;;;;;;;13.83;64.94;95296.13;5032053;28;20021;-79
2024/03/30 01:09:10;;;;;;;1.15;1.05;;;;;;;13.84;65.36;95310.72;5032727;28;20067;-80
2024/03/30 01:11:36;;;;;;;1.88;1.05;;;;;;;13.81;66.03;95304.28;5058449;28;20381;-78
2024/03/30 01:14:05;;;;;;;2.33;1.23;;;;;;;13.81;65.58;95303.47;5046341;28;20245;-79
2024/03/30 01:16:31;;;;;;;1.95;1.08;;;;;;;13.81;64.98;95304.28;5032269;28;20060;-79
2024/03/30 01:18:57;;;;;;;1.80;1.00;;;;;;;13.84;65.12;95297.63;5038125;28;20507;-79
2024/03/30 01:21:23;;;;;;;1.73;1.00;;;;;;;13.77;65.88;95294.72;5037905;28;20040;-80
2024/03/30 01:23:49;;;;;;;1.40;0.70;;;;;;;13.67;65.63;95282.72;5029409;28;20449;-80
2024/03/30 01:26:18;;;;;;;1.25;1.02;;;;;;;13.73;64.52;95285.97;5043881;28;20052;-79
2024/03/30 01:28:45;;;;;;;1.20;1.10;;;;;;;13.59;64.75;95284.31;5017883;28;20028;-80
2024/03/30 01:31:11;;;;;;;1.27;1.15;;;;;;;13.52;65.26;95284.00;5042913;28;20696;-85
2024/03/30 01:33:36;;;;;;;1.35;1.08;;;;;;;13.60;65.17;95285.81;4994563;28;20025;-86
2024/03/30 01:36:02;;;;;;;2.35;1.27;;;;;;;13.52;64.17;95285.84;4994375;28;20049;-86
2024/03/30 01:38:29;;;;;;;2.03;1.13;;;;;;;13.42;65.41;95282.47;4971988;28;20097;-85
2024/03/30 01:40:55;;;;;;;0.95;0.80;;;;;;;13.46;65.60;95290.47;4972425;28;20239;-86
2024/03/30 01:43:20;;;;;;;1.75;1.15;;;;;;;13.29;65.69;95284.13;5019980;28;20029;-80
2024/03/30 01:45:46;;;;;;;1.30;1.00;;;;;;;13.25;65.53;95287.69;5010661;28;20144;-80
2024/03/30 01:48:11;;;;;;;1.55;0.80;;;;;;;13.29;65.23;95294.56;5037943;28;20396;-80
2024/03/30 01:50:41;;;;;;;2.33;0.95;;;;;;;13.33;64.86;95281.69;5039642;28;20032;-79
2024/03/30 01:53:08;;;;;;;1.63;0.90;;;;;;;13.27;64.76;95293.34;5012237;28;20119;-80
2024/03/30 01:55:34;;;;;;;1.83;1.10;;;;;;;13.14;64.94;95279.34;5038583;28;20036;-80
2024/03/30 01:58:02;;;;;;;2.05;1.40;;;;;;;13.16;65.70;95282.44;5027003;28;20034;-80
2024/03/30 02:00:28;;;;;;;1.05;0.90;;;;;;;13.12;64.90;95289.34;5020427;28;20037;-80
2024/03/30 02:02:54;;;;;;;1.00;0.90;;;;;;;13.09;65.06;95277.69;5023920;28;20491;-80
2024/03/30 02:05:19;;;;;;;1.30;1.10;;;;;;;13.02;65.41;95279.97;5009671;28;20048;-80
2024/03/30 02:07:46;;;;;;;0.93;0.88;;;;;;;13.02;66.01;95289.66;5023725;28;20633;-80
2024/03/30 02:10:12;;;;;;;1.63;0.73;;;;;;;12.97;65.36;95287.19;4993751;28;20036;-80
2024/03/30 02:12:39;;;;;;;0.85;0.80;;;;;;;12.99;65.83;95288.44;5018847;28;20033;-80
2024/03/30 02:15:05;;;;;;;1.48;0.75;;;;;;;12.96;65.34;95281.19;5032995;28;20483;-80
2024/03/30 02:17:31;;;;;;;1.75;1.00;;;;;;;12.97;65.35;95281.94;5004439;28;20041;-80
2024/03/30 02:19:57;;;;;;;0.93;0.82;;;;;;;12.96;65.64;95277.81;5034035;28;20024;-79
2024/03/30 02:22:23;;;;;;;1.52;0.98;;;;;;;12.93;65.90;95279.94;5011238;28;20039;-80
2024/03/30 02:24:48;;;;;;;0.80;0.75;;;;;;;12.83;65.40;95261.97;5013373;28;20033;-79
2024/03/30 02:27:14;;;;;;;0.98;0.70;;;;;;;12.86;65.91;95265.81;4994473;28;20152;-80
2024/03/30 02:29:40;;;;;;;2.70;0.77;;;;;;;12.84;65.10;95257.53;5010896;28;20498;-80
2024/03/30 02:32:06;;;;;;;1.35;1.00;;;;;;;12.91;65.62;95266.44;5009449;28;20034;-80
2024/03/30 02:34:32;;;;;;;1.35;0.88;;;;;;;12.87;64.71;95262.91;5005757;28;20702;-87
2024/03/30 02:36:57;;;;;;;2.25;0.80;;;;;;;12.78;64.91;95262.09;5026970;28;20040;-88
2024/03/30 02:39:23;;;;;;;2.70;1.30;;;;;;;12.65;65.37;95248.13;4996207;28;20067;-85
2024/03/30 02:41:48;;;;;;;1.40;0.75;;;;;;;12.68;65.02;95254.56;5024774;28;20515;-87
2024/03/30 02:44:14;;;;;;;1.60;1.10;;;;;;;12.60;65.30;95240.44;5015334;28;20141;-88
2024/03/30 02:46:39;;;;;;;1.13;0.90;;;;;;;12.72;65.30;95245.06;5001667;28;20475;-88
2024/03/30 02:49:04;;;;;;;1.67;0.82;;;;;;;12.76;65.43;95245.97;4999608;28;20095;-87
2024/03/30 02:51:30;;;;;;;1.05;0.80;;;;;;;12.71;64.94;95243.50;4993863;28;20025;-80
2024/03/30 02:53:55;;;;;;;1.42;0.82;;;;;;;12.70;65.06;95252.44;5015210;28;20065;-88
2024/03/30 02:56:21;;;;;;;1.00;0.82;;;;;;;12.63;65.14;95244.25;5013737;28;20480;-86
2024/03/30 02:58:47;;;;;;;0.98;0.88;;;;;;;12.54;64.97;95244.25;4990435;28;20025;-87
2024/03/30 03:01:12;;;;;;;1.58;0.80;;;;;;;12.54;65.50;95254.69;5014616;28;20036;-87
2024/03/30 03:03:38;;;;;;;1.70;1.00;;;;;;;12.49;64.54;95250.41;4997294;28;20513;-87
2024/03/30 03:06:03;;;;;;;0.68;0.68;;;;;;;12.42;65.18;95241.47;4987882;28;20507;-87
2024/03/30 03:08:29;;;;;;;1.25;0.98;;;;;;;12.42;65.26;95237.00;5014722;28;20029;-88
2024/03/30 03:10:54;;;;;;;2.50;0.93;;;;;;;12.44;64.75;95242.72;5012369;28;20137;-85
2024/03/30 03:13:20;;;;;;;2.20;1.00;;;;;;;12.42;66.21;95239.59;5037370;28;20283;-80
2024/03/30 03:15:46;;;;;;;1.33;0.75;;;;;;;12.45;65.40;95251.28;5019585;28;20110;-80
2024/03/30 03:18:11;;;;;;;1.75;0.80;;;;;;;12.46;65.31;95252.84;5018375;28;20029;-80
2024/03/30 03:20:37;;;;;;;2.35;0.80;;;;;;;12.40;65.54;95244.38;4993779;28;20498;-79
2024/03/30 03:23:02;;;;;;;2.10;1.30;;;;;;;12.43;65.52;95249.00;5020051;28;20039;-79
2024/03/30 03:25:28;;;;;;;1.98;0.90;;;;;;;12.43;65.83;95248.22;5039061;28;20034;-80
2024/03/30 03:27:53;;;;;;;1.00;0.80;;;;;;;12.43;65.50;95248.22;5001520;28;20064;-79
2024/03/30 03:30:19;;;;;;;3.30;0.90;;;;;;;12.43;65.13;95243.00;4997076;28;20055;-79
2024/03/30 03:32:47;;;;;;;1.58;0.75;;;;;;;12.51;64.56;95253.47;4988638;28;20083;-79
2024/03/30 03:35:15;;;;;;;2.58;1.33;;;;;;;12.33;64.83;95249.25;5028589;28;20065;-80
2024/03/30 03:37:40;;;;;;;1.70;0.70;;;;;;;12.34;64.69;95253.44;5021479;28;20029;-79
2024/03/30 03:40:06;;;;;;;3.40;0.85;;;;;;;12.28;65.24;95236.34;5014222;28;20373;-79
2024/03/30 03:42:32;;;;;;;2.83;0.88;;;;;;;12.47;65.90;95249.91;5041213;28;20108;-80
2024/03/30 03:44:57;;;;;;;3.70;1.10;;;;;;;12.52;65.87;95252.38;5005074;28;20540;-86
2024/03/30 03:47:23;;;;;;;1.92;1.08;;;;;;;12.54;65.21;95237.19;5014263;28;20528;-89
2024/03/30 03:49:48;;;;;;;3.90;1.27;;;;;;;12.68;65.10;95251.94;5002071;28;20547;-87
2024/03/30 03:52:14;;;;;;;3.38;0.98;;;;;;;12.56;65.36;95234.28;5029820;28;20044;-89
2024/03/30 03:54:39;;;;;;;2.28;1.10;;;;;;;12.53;65.22;95237.50;5014183;28;20030;-87
2024/03/30 03:57:05;;;;;;;1.95;1.40;;;;;;;12.56;65.43;95242.13;5029104;28;20571;-87
2024/03/30 03:59:30;;;;;;;3.42;1.20;;;;;;;12.54;65.53;95241.63;5015376;28;20033;-88
2024/03/30 04:01:56;;;;;;;2.35;0.82;;;;;;;12.56;65.22;95244.72;5024372;28;20045;-85
2024/03/30 04:04:21;;;;;;;3.28;1.13;;;;;;;12.55;65.25;95243.94;5009734;28;20022;-89
2024/03/30 04:06:47;;;;;;;3.17;1.17;;;;;;;12.62;65.75;95245.34;5008199;28;20029;-88
2024/03/30 04:09:13;;;;;;;3.53;1.13;;;;;;;12.50;65.72;95238.09;5005802;28;20509;-88
2024/03/30 04:11:39;;;;;;;5.53;1.25;;;;;;;12.46;65.23;95248.38;5003877;28;20068;-87
2024/03/30 04:14:04;;;;;;;1.38;0.90;;;;;;;12.49;65.47;95250.41;5014758;28;20118;-88
2024/03/30 04:16:30;;;;;;;4.72;1.08;;;;;;;12.43;65.43;95243.00;5000431;28;20106;-89
2024/03/30 04:18:55;;;;;;;3.72;1.48;;;;;;;12.40;65.35;95246.22;5015604;28;20028;-86
2024/03/30 04:21:21;;;;;;;3.85;1.30;;;;;;;12.30;65.67;95226.38;5015523;28;20747;-88
2024/03/30 04:23:49;;;;;;;4.13;1.85;;;;;;;12.45;66.11;95239.00;5015096;28;20488;-89
2024/03/30 04:26:14;;;;;;;1.98;1.20;;;;;;;12.34;65.58;95240.38;4996678;28;20044;-89
2024/03/30 04:28:40;;;;;;;4.03;1.70;;;;;;;12.34;66.03;95256.03;5004748;28;20033;-88
2024/03/30 04:31:06;;;;;;;5.47;1.27;;;;;;;12.30;64.45;95250.66;5015391;28;20072;-90
2024/03/30 04:33:32;;;;;;;4.28;1.25;;;;;;;12.14;65.59;95234.63;5006213;28;20032;-87
2024/03/30 04:35:59;;;;;;;5.28;1.58;;;;;;;12.14;65.46;95236.47;5014399;28;20388;-87
2024/03/30 04:38:26;;;;;;;2.45;0.93;;;;;;;12.17;65.42;95249.66;5036601;28;20120;-86
2024/03/30 04:40:56;;;;;;;3.53;1.00;;;;;;;12.24;65.85;95251.84;5011671;28;20029;-80
2024/03/30 04:43:21;;;;;;;2.65;1.10;;;;;;;12.17;65.50;95241.84;5028441;28;20053;-80
2024/03/30 04:45:46;;;;;;;3.78;1.10;;;;;;;12.16;65.90;95242.91;5017274;28;20041;-80
2024/03/30 04:48:12;;;;;;;2.03;1.17;;;;;;;12.14;65.32;95245.06;5017608;28;20396;-80
2024/03/30 04:50:37;;;;;;;2.75;0.98;;;;;;;12.09;65.43;95244.44;5014621;28;20041;-87
2024/03/30 04:53:03;;;;;;;1.88;1.23;;;;;;;12.05;65.39;95239.03;5014433;28;20033;-86
2024/03/30 04:55:28;;;;;;;4.65;0.98;;;;;;;12.02;66.06;95236.28;4986449;28;20145;-81
2024/03/30 04:57:53;;;;;;;1.88;0.80;;;;;;;12.03;65.70;95233.38;5015284;28;20099;-87
2024/03/30 05:00:19;;;;;;;2.65;0.77;;;;;;;12.07;66.45;95239.50;5011350;28;20084;-88
2024/03/30 05:02:44;;;;;;;5.00;1.10;;;;;;;12.05;66.18;95233.06;4995291;28;20057;-88
2024/03/30 05:05:09;;;;;;;3.35;1.60;;;;;;;12.00;65.72;95231.34;5003257;28;20025;-89
2024/03/30 05:07:35;;;;;;;1.95;1.10;;;;;;;11.96;65.43;95230.41;4986517;28;20102;-89
2024/03/30 05:10:00;;;;;;;4.40;0.93;;;;;;;12.01;65.40;95235.47;5025706;28;20047;-86
2024/03/30 05:12:26;;;;;;;1.83;1.45;;;;;;;12.01;66.06;95232.88;5003648;28;20033;-89
2024/03/30 05:14:51;;;;;;;3.25;0.90;;;;;;;12.02;66.18;95212.78;4995744;28;20384;-80
2024/03/30 05:17:17;;;;;;;4.50;1.27;;;;;;;12.02;65.80;95223.22;5000318;28;20121;-81
2024/03/30 05:22:26;;;;;;;2.63;1.00;;;;;;;12.10;65.63;95222.50;5021659;28;20040;-86
2024/03/30 05:24:55;;;;;;;2.88;0.90;;;;;;;12.17;65.95;95220.22;5016433;28;20037;-88
2024/03/30 05:27:20;;;;;;;5.97;1.35;;;;;;;12.14;66.17;95213.00;5015655;28;20033;-88
2024/03/30 05:29:46;;;;;;;4.18;1.10;;;;;;;12.17;65.93;95215.00;5011679;28;20052;-88
2024/03/30 05:32:11;;;;;;;6.00;1.02;;;;;;;12.16;65.62;95214.22;5017222;28;20039;-89
2024/03/30 05:34:36;;;;;;;2.22;1.10;;;;;;;12.20;65.77;95214.41;4997874;28;20032;-91
2024/03/30 05:37:04;;;;;;;3.78;1.40;;;;;;;12.18;65.86;95211.28;4997895;28;20028;-85
2024/03/30 05:39:30;;;;;;;6.18;1.73;;;;;;;12.22;65.73;95214.06;5011194;28;20120;-87
2024/03/30 05:41:55;;;;;;;3.92;1.70;;;;;;;12.25;66.32;95224.69;5006641;28;20642;-90
2024/03/30 05:44:21;;;;;;;6.50;2.35;;;;;;;12.24;66.64;95209.34;4994734;28;20161;-88
2024/03/30 05:46:46;;;;;;;10.70;1.80;;;;;;;12.26;66.04;95213.16;4984681;28;20045;-89
2024/03/30 05:49:13;;;;;;;6.03;1.25;;;;;;;12.26;65.39;95212.41;4999553;28;20504;-88
2024/03/30 05:51:39;;;;;;;6.18;2.45;;;;;;;12.21;66.37;95210.69;5028355;28;20029;-88
2024/03/30 05:54:04;;;;;;;6.22;4.07;;;;;;;12.22;65.85;95217.47;5012124;28;20025;-88
2024/03/30 05:56:30;;;;;;;5.97;3.28;;;;;;;12.17;66.28;95213.16;5017847;28;20029;-80
2024/03/30 05:58:55;;;;;;;4.90;2.72;;;;;;;12.20;66.21;95213.59;4991728;28;20045;-81
2024/03/30 06:01:20;;;;;;;5.18;1.85;;;;;;;12.10;66.27;95199.78;4981969;28;20034;-81
2024/03/30 06:03:46;;;;;;;2.60;1.30;;;;;;;12.16;65.76;95216.81;5027174;28;20041;-80
2024/03/30 06:06:11;;;;;;;4.72;1.90;;;;;;;12.17;66.01;95215.75;5038936;28;20382;-80
2024/03/30 06:08:37;;;;;;;2.75;1.40;;;;;;;12.22;66.13;95222.69;5027255;28;20041;-88
2024/03/30 06:11:02;;;;;;;4.68;1.48;;;;;;;12.20;66.55;95227.44;5004795;28;20448;-85
2024/03/30 06:13:27;;;;;;;4.15;1.60;;;;;;;12.18;66.18;95217.31;5001974;28;20451;-90
2024/03/30 06:16:03;;;;;;;5.80;1.80;;;;;;;12.35;66.33;95224.41;5017264;28;20440;-80
2024/03/30 06:18:29;;;;;;;2.55;1.48;;;;;;;12.15;67.06;95210.06;5003718;28;20049;-88
2024/03/30 06:20:55;;;;;;;4.15;1.25;;;;;;;12.22;66.46;95216.69;4988235;28;20028;-88
2024/03/30 06:23:20;;;;;;;2.08;1.13;;;;;;;12.22;66.88;95216.69;4998430;28;20101;-89
2024/03/30 06:25:46;;;;;;;3.97;1.45;;;;;;;12.41;65.91;95232.09;5013357;28;20044;-90
2024/03/30 06:28:11;;;;;;;3.90;1.30;;;;;;;12.43;66.47;95224.72;5012875;28;20033;-88
2024/03/30 06:30:37;;;;;;;4.03;1.08;;;;;;;12.49;66.28;95218.28;5009684;28;20319;-89
2024/03/30 06:33:05;;;;;;;6.20;1.00;;;;;;;12.57;66.71;95227.22;5000895;28;20511;-88
2024/03/30 06:35:32;;;;;;;2.63;1.13;;;;;;;12.60;66.63;95224.75;5013537;28;20060;-87
2024/03/30 06:37:58;;;;;;;5.60;1.80;;;;;;;12.71;66.42;95223.41;5017223;28;20040;-84
2024/03/30 06:45:52;;;;;;;5.57;1.77;;;;;;;13.20;65.60;95236.31;5032591;28;20111;-89
2024/03/30 06:48:18;;;;;;;3.78;1.40;;;;;;;13.33;64.87;95239.09;5007433;28;20029;-88
2024/03/30 06:50:44;;;;;;;6.07;1.73;;;;;;;13.43;63.17;95239.53;5011091;28;20037;-85
2024/03/30 06:53:10;;;;;;;2.58;0.90;;;;;;;13.62;63.08;95238.44;5014742;28;20036;-89
2024/03/30 06:55:35;;;;;;;4.93;1.00;;;;;;;13.78;62.31;95244.72;4999784;28;20033;-88
2024/03/30 06:58:01;;;;;;;3.88;1.00;;;;;;;13.95;62.14;95243.91;5014286;28;20459;-85
2024/03/30 07:00:26;;;;;;;2.13;0.88;;;;;;;14.00;61.13;95240.34;5020417;28;20037;-86
2024/03/30 07:02:51;;;;;;;6.72;0.82;;;;;;;14.10;60.32;95247.06;5000888;28;20447;-88
2024/03/30 07:05:17;;;;;;;5.18;0.90;;;;;;;14.13;59.18;95225.53;5030554;28;20037;-87
2024/03/30 07:07:43;;;;;;;3.28;1.85;;;;;;;14.29;60.08;95242.25;5016695;28;20087;-88
2024/03/30 07:10:08;;;;;;;6.32;0.90;;;;;;;14.36;58.39;95234.66;5031998;28;20124;-87
2024/03/30 07:12:34;;;;;;;6.65;1.65;;;;;;;14.49;59.19;95239.97;4993816;28;20388;-87
2024/03/30 07:15:00;;;;;;;6.07;1.48;;;;;;;14.53;57.92;95233.00;5000417;28;20435;-86
2024/03/30 07:17:27;;;;;;;6.75;0.80;;;;;;;14.63;58.71;95237.16;5021635;28;20485;-87
2024/03/30 07:19:52;;;;;;;4.38;0.60;;;;;;;14.51;58.29;95225.47;5029360;28;20048;-88
2024/03/30 07:22:20;;;;;;;2.42;1.08;;;;;;;14.69;59.37;95238.50;5042455;28;20071;-86
2024/03/30 07:24:49;;;;;;;5.18;0.90;;;;;;;14.83;58.66;95246.13;5003390;28;20056;-84
2024/03/30 07:27:14;;;;;;;1.30;0.80;;;;;;;14.75;57.96;95245.09;4997714;28;20393;-88
2024/03/30 07:29:40;;;;;;;3.30;1.05;;;;;;;14.79;57.40;95238.91;4993067;28;20025;-87
2024/03/30 07:32:05;;;;;;;2.30;1.08;;;;;;;14.95;58.96;95241.72;5045455;28;20041;-88
2024/03/30 07:34:31;;;;;;;3.22;0.90;;;;;;;14.90;56.89;95231.41;5004473;28;20511;-79
2024/03/30 07:36:56;;;;;;;6.00;1.67;;;;;;;15.03;56.63;95244.56;5022096;28;20090;-88
2024/03/30 07:39:22;;;;;;;3.78;0.85;;;;;;;14.99;56.40;95233.97;5016183;28;20154;-89
2024/03/30 07:41:47;;;;;;;2.95;1.40;;;;;;;15.05;55.50;95235.31;4998036;28;20102;-86
2024/03/30 07:44:13;;;;;;;3.50;0.73;;;;;;;15.13;55.86;95233.72;4998129;28;20025;-84
2024/03/30 07:46:38;;;;;;;2.45;0.90;;;;;;;15.11;57.17;95234.06;4986191;28;20055;-85
2024/03/30 07:49:04;;;;;;;2.58;0.90;;;;;;;15.15;57.46;95250.66;4996919;28;20083;-85
2024/03/30 07:51:30;;;;;;;3.65;1.48;;;;;;;15.09;57.47;95238.81;5001019;28;20069;-85
2024/03/30 07:53:55;;;;;;;4.35;1.35;;;;;;;15.16;58.53;95246.97;4999069;28;20056;-86
2024/03/30 07:56:24;;;;;;;1.23;0.60;;;;;;;15.14;58.96;95249.13;4995803;28;20026;-86
2024/03/30 07:58:50;;;;;;;4.85;1.10;;;;;;;15.12;59.43;95243.44;5004916;28;20400;-86
2024/03/30 08:01:15;;;;;;;4.10;1.85;;;;;;;15.10;58.54;95248.22;5013781;28;20037;-85
2024/03/30 08:03:41;;;;;;;5.05;1.30;;;;;;;15.08;58.40;95233.91;5016111;28;20412;-85
2024/03/30 08:06:06;;;;;;;4.63;1.88;;;;;;;15.19;59.12;95252.66;4998594;28;20292;-82
2024/03/30 08:08:32;;;;;;;5.18;1.92;;;;;;;15.17;59.70;95266.84;4996183;28;20033;-86
2024/03/30 08:10:58;;;;;;;5.07;2.20;;;;;;;15.14;60.78;95259.59;5014410;28;20064;-85
2024/03/30 08:13:24;;;;;;;6.07;2.75;;;;;;;15.16;60.80;95261.91;4998762;28;20020;-85
2024/03/30 08:15:49;;;;;;;3.78;2.60;;;;;;;15.16;61.98;95257.44;5001395;28;20021;-85
2024/03/30 08:18:15;;;;;;;5.88;3.10;;;;;;;15.27;61.80;95270.16;4990367;28;20079;-79
2024/03/30 08:20:40;;;;;;;5.13;2.97;;;;;;;15.27;63.27;95265.69;5012814;28;20547;-79
2024/03/30 08:23:06;;;;;;;6.63;3.33;;;;;;;15.30;63.13;95256.41;4996015;28;20099;-80
2024/03/30 08:25:34;;;;;;;5.20;2.80;;;;;;;15.38;63.60;95266.06;5031800;28;20108;-79
2024/03/30 08:28:02;;;;;;;7.47;4.30;;;;;;;15.49;64.00;95261.16;5017167;28;20148;-79
2024/03/30 08:30:28;;;;;;;6.32;4.20;;;;;;;15.57;64.23;95270.06;5023333;28;20029;-79
2024/03/30 08:32:54;;;;;;;6.90;5.07;;;;;;;15.55;64.65;95262.50;5019304;28;20056;-79
2024/03/30 08:35:20;;;;;;;4.90;4.25;;;;;;;15.63;64.75;95266.16;5037032;28;20410;-79
2024/03/30 08:37:45;;;;;;;8.57;7.25;;;;;;;15.63;64.68;95255.66;5048437;28;20364;-79
2024/03/30 08:40:11;;;;;;;13.52;11.27;;;;;;;15.59;63.96;95245.03;5025998;28;20447;-79
2024/03/30 08:42:36;;;;;;;14.43;10.30;;;;;;;15.66;63.78;95260.25;5025294;28;20037;-79
2024/03/30 08:45:02;;;;;;;15.10;12.80;;;;;;;15.64;64.21;95260.56;5021578;28;20040;-79
2024/03/30 08:47:27;;;;;;;12.50;10.05;;;;;;;15.66;64.18;95260.25;5012897;28;20056;-79
2024/03/30 08:49:53;;;;;;;10.07;8.93;;;;;;;15.67;64.63;95262.53;5030454;28;20091;-79
2024/03/30 08:52:18;;;;;;;11.90;10.23;;;;;;;15.77;64.40;95264.03;5011532;28;20099;-79
2024/03/30 08:54:44;;;;;;;8.38;7.63;;;;;;;15.76;64.47;95278.22;5006876;28;20076;-79
2024/03/30 08:57:09;;;;;;;8.70;7.90;;;;;;;15.80;64.75;95273.09;5026656;28;20033;-79
2024/03/30 08:59:34;;;;;;;7.80;7.00;;;;;;;15.88;64.72;95282.75;5016711;28;20037;-79
2024/03/30 09:02:00;;;;;;;9.23;7.50;;;;;;;15.99;65.26;95288.34;5020175;28;20513;-79
2024/03/30 09:04:25;;;;;;;7.40;6.68;;;;;;;16.08;65.24;95278.53;4983951;28;20075;-79
2024/03/30 09:06:51;;;;;;;7.53;6.75;;;;;;;16.13;64.26;95286.19;5006651;28;20059;-79
2024/03/30 09:09:16;;;;;;;11.90;10.85;;;;;;;16.20;64.44;95283.78;5005042;28;20416;-80
2024/03/30 09:11:42;;;;;;;7.90;7.30;;;;;;;16.22;63.92;95280.84;4987734;28;20042;-79
2024/03/30 09:14:07;;;;;;;5.60;2.78;;;;;;;16.24;63.66;95287.28;5010182;28;20060;-79
2024/03/30 09:16:33;;;;;;;3.15;1.80;;;;;;;16.08;63.42;95281.91;4992436;28;20546;-80
2024/03/30 09:18:58;;;;;;;3.50;1.88;;;;;;;16.13;63.00;95286.19;5007740;28;20048;-84
2024/03/30 09:21:24;;;;;;;3.38;1.85;;;;;;;16.28;63.56;95298.69;5029656;28;20633;-83
2024/03/30 09:23:49;;;;;;;2.97;1.98;;;;;;;16.37;63.78;95297.81;4995285;28;20385;-84
2024/03/30 09:26:14;;;;;;;4.95;2.15;;;;;;;16.45;63.83;95299.56;4994763;28;20032;-79
2024/03/30 09:28:40;;;;;;;1.92;1.67;;;;;;;16.56;62.87;95305.91;4984929;28;20033;-79
2024/03/30 09:31:05;;;;;;;2.35;1.70;;;;;;;16.66;63.20;95302.09;5029095;28;20037;-79
2024/03/30 09:33:30;;;;;;;4.07;1.60;;;;;;;16.66;62.62;95304.72;4990368;28;20075;-79
2024/03/30 09:35:58;;;;;;;3.45;1.52;;;;;;;16.67;63.18;95309.66;5023579;28;20075;-79
2024/03/30 09:38:23;;;;;;;3.15;1.40;;;;;;;16.62;63.13;95314.34;5009403;28;20458;-79
2024/03/30 09:40:51;;;;;;;3.13;1.90;;;;;;;16.60;63.59;95306.03;5012153;28;20116;-79
2024/03/30 09:43:18;;;;;;;4.65;1.80;;;;;;;16.44;62.33;95317.19;5008549;28;20037;-79
2024/03/30 09:45:44;;;;;;;2.65;2.22;;;;;;;16.48;62.94;95325.97;5018729;28;20037;-79
2024/03/30 09:48:12;;;;;;;3.40;3.10;;;;;;;16.50;63.04;95328.22;5018881;28;20021;-82
2024/03/30 09:50:39;;;;;;;5.05;4.30;;;;;;;16.51;63.52;95342.16;5005254;28;20029;-84
2024/03/30 09:53:06;;;;;;;7.30;2.92;;;;;;;16.65;63.77;95348.59;5021094;28;20120;-79
2024/03/30 09:55:32;;;;;;;2.25;1.48;;;;;;;16.69;63.50;95342.69;5018975;28;20595;-79
2024/03/30 09:57:58;;;;;;;2.78;1.38;;;;;;;16.74;60.42;95358.25;5019752;28;20037;-79
2024/03/30 10:00:23;;;;;;;5.82;2.03;;;;;;;16.42;59.48;95366.66;5025181;28;20116;-80
2024/03/30 10:02:48;;;;;;;3.83;1.55;;;;;;;16.52;59.19;95372.56;5021490;28;20041;-79
2024/03/30 10:05:14;;;;;;;2.92;1.38;;;;;;;16.50;59.34;95386.03;5027600;28;20405;-79
2024/03/30 10:07:54;;;;;;;3.40;1.30;;;;;;;16.49;59.01;95381.88;5025292;28;20029;-81
2024/03/30 10:10:21;;;;;;;2.60;1.40;;;;;;;16.23;59.60;95390.81;5042171;28;20033;-79
2024/03/30 10:13:07;;;;;;;3.50;1.45;;;;;;;16.28;57.55;95400.34;5037430;28;20045;-79
2024/03/30 10:15:35;;;;;;;9.95;3.70;;;;;;;16.17;60.14;95399.19;5030140;28;20413;-78
2024/03/30 10:18:01;;;;;;;6.32;2.47;;;;;;;16.09;59.52;95401.59;5002293;28;20030;-79
2024/03/30 10:20:26;;;;;;;5.93;2.38;;;;;;;16.05;58.87;95394.69;4996831;28;20071;-79
2024/03/30 10:22:52;;;;;;;5.18;1.70;;;;;;;16.00;59.71;95405.38;5005553;28;20057;-79
2024/03/30 10:25:18;;;;;;;5.90;1.90;;;;;;;15.87;60.57;95402.72;5025215;28;20034;-79
2024/03/30 10:27:45;;;;;;;3.05;1.77;;;;;;;15.87;60.73;95405.34;5035742;28;20103;-79
2024/03/30 10:30:11;;;;;;;3.50;1.75;;;;;;;15.92;61.46;95399.13;5041948;28;20492;-78
2024/03/30 10:32:37;;;;;;;5.45;2.00;;;;;;;15.90;61.58;95402.06;5013380;28;20040;-79
2024/03/30 10:35:07;;;;;;;3.30;1.88;;;;;;;15.93;61.91;95395.41;5013794;28;20028;-79
2024/03/30 10:37:34;;;;;;;3.95;1.67;;;;;;;16.07;62.86;95400.38;5006515;28;20493;-84
2024/03/30 10:40:06;;;;;;;3.53;1.38;;;;;;;16.09;62.26;95398.97;5019478;28;20399;-84
2024/03/30 10:42:31;;;;;;;3.03;1.50;;;;;;;16.09;63.07;95403.44;5006678;28;20025;-85
2024/03/30 10:44:58;;;;;;;2.22;1.50;;;;;;;16.16;62.93;95402.91;5027304;28;20041;-83
2024/03/30 10:47:24;;;;;;;3.33;1.42;;;;;;;16.16;63.02;95398.44;4991827;28;20231;-85
2024/03/30 10:49:49;;;;;;;3.30;2.00;;;;;;;16.23;62.50;95406.56;5000584;28;20044;-85
2024/03/30 10:52:15;;;;;;;4.03;1.77;;;;;;;16.28;62.37;95414.22;5020729;28;20508;-84
2024/03/30 10:54:41;;;;;;;3.38;1.73;;;;;;;16.38;62.04;95410.44;4994475;28;20041;-83
2024/03/30 10:57:08;;;;;;;3.78;1.33;;;;;;;16.44;61.23;95411.75;4996519;28;20037;-79
2024/03/30 10:59:40;;;;;;;5.53;1.40;;;;;;;16.46;61.10;95419.31;5000064;28;20033;-78
2024/03/30 11:02:16;;;;;;;2.15;1.10;;;;;;;16.55;59.67;95417.34;5016537;28;20454;-79
2024/03/30 11:04:43;;;;;;;4.55;1.30;;;;;;;16.48;60.13;95420.53;5010898;28;20120;-79
2024/03/30 11:07:10;;;;;;;5.80;2.75;;;;;;;16.54;59.46;95426.34;5011270;28;20037;-78
2024/03/30 11:09:38;;;;;;;4.40;2.15;;;;;;;16.50;59.73;95425.44;5000693;28;20033;-79
2024/03/30 11:12:05;;;;;;;5.55;2.10;;;;;;;16.46;59.18;95420.06;5027293;28;20028;-79
2024/03/30 11:14:31;;;;;;;6.63;1.63;;;;;;;16.44;57.80;95429.38;5005936;28;20489;-85
2024/03/30 11:16:57;;;;;;;10.23;2.22;;;;;;;16.43;56.26;95425.19;5029654;28;20056;-87
2024/03/30 11:19:36;;;;;;;11.52;2.15;;;;;;;16.55;55.70;95432.34;5032623;28;20044;-86
2024/03/30 11:22:07;;;;;;;13.90;2.55;;;;;;;16.61;54.61;95417.91;5022771;28;20091;-85
2024/03/30 11:24:36;;;;;;;10.70;2.78;;;;;;;16.64;54.39;95431.19;5013913;28;20533;-78
2024/03/30 11:27:06;;;;;;;15.77;2.50;;;;;;;16.66;52.98;95436.09;5008628;28;20662;-78
2024/03/30 11:29:56;;;;;;;17.30;3.05;;;;;;;16.82;51.00;95438.84;4991683;28;20029;-78
2024/03/30 11:32:25;;;;;;;12.30;3.30;;;;;;;16.83;50.29;95446.41;5009193;28;20026;-79
2024/03/30 11:34:56;;;;;;;19.05;2.90;;;;;;;16.81;50.46;95443.34;5016749;28;20021;-79
2024/03/30 11:37:31;;;;;;;15.90;3.40;;;;;;;16.87;49.21;95443.94;5016707;28;20041;-79
2024/03/30 11:39:59;;;;;;;17.23;2.88;;;;;;;16.91;51.07;95439.53;5038691;28;20493;-79
2024/03/30 11:43:00;;;;;;;17.02;3.05;;;;;;;16.98;50.59;95445.06;5043362;28;20063;-79